Hart, TX

2:43 PM CST on February 20, 2017 (GMT -0600)
West Bedford SMB | | Change Station
Active Advisory: Wind Advisory

Elev 3904 ft 34.54 °N, 102.34 °W | Updated 36 seconds ago

Clear
Clear
65.5 °F
Feels Like 65.5 °F
N
15.9
Wind Variable Wind from NW
Gusts 19.9 mph

Today
High -- | Low -- °F
--% Chance of Precip.
Yesterday
High -- | Low -- °F
Precip. -- in
Pressure 29.95 in
Visibility 10.0 miles
Clouds Clear
Dew Point 15 °F
Humidity 14%
Rainfall 1.03 in
Snow Depth Not available.
7:27 AM 6:36 PM
Waning Crescent, 31% visible
METAR KPVW 202035Z AUTO 01024G29KT 10SM CLR 19/M05 A2995 RMK AO2 T01881051 TSNO
Pressure 29.95 in
Visibility 10.0 miles
Clouds Clear
Dew Point 15 °F
Humidity 14%
Rainfall 1.03 in
Snow Depth Not available.
7:27 AM 6:36 PM
Waning Crescent, 31% visible
METAR KPVW 202035Z AUTO 01024G29KT 10SM CLR 19/M05 A2995 RMK AO2 T01881051 TSNO

Get Your Daily Forecast Email!

Thanks for signing up!

Be on the lookout for a verification email in your inbox.

You'll start receiving the daily forecast at 8 AM.

×

10-Day Weather Forecast

Almanac

Astronomy

Feb. 20, 2017 Rise Set
Actual Time
Civil Twilight
Nautical Twilight
Astronomical Twilight
Moon
Length of Visible Light
Length of Day
Tomorrow will be .
, % of the Moon is Illuminated

Today's Extremes

State Highs State Lows

Community

WunderPhotos

Upload Photos

1,962,540 photos uploaded!

WunderBlog® & News

Nearby

Air Quality

  Air Quality AQ Index Pollutant
Not available.

Snow Depth

Station Depth Elevation

Earthquake Activity

City Distance Mag. Time & Date
Minimum magnitude displayed is 2.5.

Coastal Water Temperatures

Place Temperature

Stations

Nearby Weather Stations

Station Location Temp. Windchill Dew Point Humidity Wind Precip. Elev Updated Type
                   

Watches & Warnings

Wind Advisory
Issued: 11:53 AM CST Feb. 20, 2017 – National Weather Service

... Wind Advisory in effect until 4 PM CST this afternoon...

The National Weather Service in Lubbock has issued a Wind
Advisory, which is in effect until 4 PM CST this afternoon.

* Timing... noon through 4 PM

* winds... near 30 mph with gusts to 40 mph.

* Impacts... travelers on east to west oriented roads will
experience strong Crosswinds.

Precautionary/preparedness actions...

A Wind Advisory means that sustained winds of 30 to 39 mph are
expected. Adjust travel and outdoor activities accordingly.